Terminal Aerodrome Forecast
Issued by NWS

Home | Current Version | Previous Version | Text Only | Print | Product List | Glossary On
Versions: 1 2 3 4 5 6 7 8 9 10 11 12
000
FTUS45 KVEF 200536
TAFBIH
TAF
KBIH 200536Z 2006/2106 33012KT P6SM BKN090
     FM200900 34008KT P6SM SCT100
     FM202100 16009KT P6SM SCT100 BKN250
     FM210300 16007KT P6SM FEW070 BKN100=

USA.gov is the U.S. government's official web portal to all federal, state and local government web resources and services.